San Antonio, Texas
Traffic Map
Current Weather Conditions
San Antonio, Texas
Clear
Clear
28°
Feels Like: 28°
Wind Chill: 28° Ceiling: Unl
Heat Index: 28° Visibility: 10mi
Dew Point: 13° Wind: 6mph
Humidity: 39% Direction: ° ()
Pressure: 30.15in Gusts: 0mph
Raw Report DataKSKF 251758Z AUTO VRB05KT 10SM CLR 28/13 A3015 RMK AO2 SLP203 T02840134 10284 20147 58011 $
Traffic Incident Summary
Active as of:
Severity:
Category:
InformationThere was an issue retrieving the traffic information for this location. Please try a different location or try again shortly.
Advertisements
Track Severe Weather on mobile